Hua Heng 167 — BIAK3 — position and weather

sailwx.info

Track history (hours):
 
Tides and Currents Weather Stations Pressure Air Temp Water Temp Dewpoint Dewpoint Depression Visibility Wind Speed Wind Dir Waves Ship Positions

Hua Heng 167

Last reported at 2015-Jul-05 22:33 UTC. Time now 2015-Jul-05 23:19 UTC.
Position N 36°57' E 000°30'.

Length 189 m; draft 7.1 m.

Type: Cargo ship. MMSI: 413376470.

Date/timePositionNaut miles runAvg speedWind from/ knotsBaromVisibWave heightAir tempDewpointWater temp
2015-Jul-05 22:33N 36°57' E 000°30'1413.8
2015-Jul-05 21:34N 37°01' E 000°47'1414.4
2015-Jul-05 20:33N 37°04' E 001°04'1514.9
2015-Jul-05 19:33N 37°07' E 001°22'1514.7
2015-Jul-05 18:33N 37°11' E 001°40'1414.3
2015-Jul-05 17:34N 37°14' E 001°58'1414.1
2015-Jul-05 16:33N 37°17' E 002°15'1414.2
2015-Jul-05 15:33N 37°21' E 002°32'1414.1
2015-Jul-05 14:33N 37°24' E 002°50'1414.1
2015-Jul-05 13:33N 37°27' E 003°07'1413.8
2015-Jul-05 12:34N 37°31' E 003°24'1413.6
2015-Jul-05 11:34N 37°34' E 003°40'1313.4
2015-Jul-05 10:33N 37°37' E 003°57'1313.2
2015-Jul-05 09:34N 37°40' E 004°13'1414.0
2015-Jul-05 08:34N 37°43' E 004°30'1414.2
2015-Jul-05 07:33N 37°46' E 004°48'1414.1
2015-Jul-05 06:34N 37°51' E 005°04'15212.7
2015-Jul-04 18:33N 37°43' E 008°16'1413.9
2015-Jul-04 17:33N 37°44' E 008°34'1413.9
2015-Jul-04 16:34N 37°43' E 008°51'1413.9
2015-Jul-04 15:33N 37°42' E 009°09'1414.0
2015-Jul-04 14:33N 37°41' E 009°27'1413.6
2015-Jul-04 13:33N 37°40' E 009°44'1313.5
2015-Jul-04 12:33N 37°39' E 010°01'1313.4
2015-Jul-04 11:33N 37°38' E 010°18'1313.2
2015-Jul-04 10:33N 37°37' E 010°34'1312.5
2015-Jul-04 09:33N 37°35' E 010°50'1313.0
2015-Jul-04 08:33N 37°31' E 011°05'1313.2
2015-Jul-04 07:33N 37°24' E 011°19'1413.6
2015-Jul-04 06:33N 37°16' E 011°34'1413.7
2015-Jul-04 05:32N 37°09' E 011°49'1414.2
2015-Jul-04 04:33N 37°03' E 012°04'2813.8
2015-Jul-04 02:33N 36°54' E 012°37'1413.7
2015-Jul-04 01:33N 36°50' E 012°53'1413.8
2015-Jul-04 00:33N 36°46' E 013°10'1413.8
2015-Jul-03 23:33N 36°41' E 013°26'1413.7
2015-Jul-03 22:33N 36°37' E 013°42'1313.5
2015-Jul-03 21:33N 36°33' E 013°58'1413.7
2015-Jul-03 20:33N 36°31' E 014°15'1413.8
2015-Jul-03 19:33N 36°29' E 014°32'1313.4
2015-Jul-03 18:33N 36°28' E 014°49'1313.4
2015-Jul-03 17:33N 36°26' E 015°05'1713.5
2015-Jul-03 16:19N 36°25' E 015°26'1513.1
2015-Jul-03 15:10N 36°24' E 015°45'1013.1
2015-Jul-03 14:23N 36°23' E 015°57'  
2015-Jul-01 04:21N 40°45' E 028°41'1113.9
2015-Jul-01 03:33N 40°45' E 028°56'1413.8
2015-Jul-01 02:33N 40°44' E 029°14'1312.0
2015-Jul-01 01:30N 40°45' E 029°31'  
Track history (hours):
 
Tides and Currents Weather Stations Pressure Air Temp Water Temp Dewpoint Dewpoint Depression Visibility Wind Speed Wind Dir Waves Ship Positions

Hua Heng 167

Last reported at 2015-Jul-05 22:33 UTC. Time now 2015-Jul-05 23:19 UTC.
Position N 36°57' E 000°30'.

Length 189 m; draft 7.1 m.

Type: Cargo ship. MMSI: 413376470.

Date/timePositionNaut miles runAvg speedWind from/ knotsBaromVisibWave heightAir tempDewpointWater temp
2015-Jul-05 22:33N 36°57' E 000°30'1413.8
2015-Jul-05 21:34N 37°01' E 000°47'1414.4
2015-Jul-05 20:33N 37°04' E 001°04'1514.9
2015-Jul-05 19:33N 37°07' E 001°22'1514.7
2015-Jul-05 18:33N 37°11' E 001°40'1414.3
2015-Jul-05 17:34N 37°14' E 001°58'1414.1
2015-Jul-05 16:33N 37°17' E 002°15'1414.2
2015-Jul-05 15:33N 37°21' E 002°32'1414.1
2015-Jul-05 14:33N 37°24' E 002°50'1414.1
2015-Jul-05 13:33N 37°27' E 003°07'1413.8
2015-Jul-05 12:34N 37°31' E 003°24'1413.6
2015-Jul-05 11:34N 37°34' E 003°40'1313.4
2015-Jul-05 10:33N 37°37' E 003°57'1313.2
2015-Jul-05 09:34N 37°40' E 004°13'1414.0
2015-Jul-05 08:34N 37°43' E 004°30'1414.2
2015-Jul-05 07:33N 37°46' E 004°48'1414.1
2015-Jul-05 06:34N 37°51' E 005°04'15212.7
2015-Jul-04 18:33N 37°43' E 008°16'1413.9
2015-Jul-04 17:33N 37°44' E 008°34'1413.9
2015-Jul-04 16:34N 37°43' E 008°51'1413.9
2015-Jul-04 15:33N 37°42' E 009°09'1414.0
2015-Jul-04 14:33N 37°41' E 009°27'1413.6
2015-Jul-04 13:33N 37°40' E 009°44'1313.5
2015-Jul-04 12:33N 37°39' E 010°01'1313.4
2015-Jul-04 11:33N 37°38' E 010°18'1313.2
2015-Jul-04 10:33N 37°37' E 010°34'1312.5
2015-Jul-04 09:33N 37°35' E 010°50'1313.0
2015-Jul-04 08:33N 37°31' E 011°05'1313.2
2015-Jul-04 07:33N 37°24' E 011°19'1413.6
2015-Jul-04 06:33N 37°16' E 011°34'1413.7
2015-Jul-04 05:32N 37°09' E 011°49'1414.2
2015-Jul-04 04:33N 37°03' E 012°04'2813.8
2015-Jul-04 02:33N 36°54' E 012°37'1413.7
2015-Jul-04 01:33N 36°50' E 012°53'1413.8
2015-Jul-04 00:33N 36°46' E 013°10'1413.8
2015-Jul-03 23:33N 36°41' E 013°26'1413.7
2015-Jul-03 22:33N 36°37' E 013°42'1313.5
2015-Jul-03 21:33N 36°33' E 013°58'1413.7
2015-Jul-03 20:33N 36°31' E 014°15'1413.8
2015-Jul-03 19:33N 36°29' E 014°32'1313.4
2015-Jul-03 18:33N 36°28' E 014°49'1313.4
2015-Jul-03 17:33N 36°26' E 015°05'1713.5
2015-Jul-03 16:19N 36°25' E 015°26'1513.1
2015-Jul-03 15:10N 36°24' E 015°45'1013.1
2015-Jul-03 14:23N 36°23' E 015°57'  
2015-Jul-01 04:21N 40°45' E 028°41'1113.9
2015-Jul-01 03:33N 40°45' E 028°56'1413.8
2015-Jul-01 02:33N 40°44' E 029°14'1312.0
2015-Jul-01 01:30N 40°45' E 029°31'  

Dump ship's entire track history